sensor_id;sensor_type;location;lat;lon;timestamp;pressure;altitude;pressure_sealevel;temperature;humidity
20930;BME280;21895;47.072;15.132;2023-04-06T00:00:49;96995.00;;;-2.03;62.52
20930;BME280;21895;47.072;15.132;2023-04-06T00:03:15;96991.00;;;-2.12;62.89
20930;BME280;21895;47.072;15.132;2023-04-06T00:05:42;96988.00;;;-1.99;63.05
20930;BME280;21895;47.072;15.132;2023-04-06T00:08:10;96987.00;;;-2.24;63.39
20930;BME280;21895;47.072;15.132;2023-04-06T00:10:37;96983.00;;;-2.17;63.71
20930;BME280;21895;47.072;15.132;2023-04-06T00:13:06;96986.00;;;-2.09;63.43
20930;BME280;21895;47.072;15.132;2023-04-06T00:15:33;96983.00;;;-2.04;62.83
20930;BME280;21895;47.072;15.132;2023-04-06T00:18:00;96974.00;;;-1.97;63.35
20930;BME280;21895;47.072;15.132;2023-04-06T00:20:26;96979.00;;;-1.94;63.25
20930;BME280;21895;47.072;15.132;2023-04-06T00:22:53;96980.00;;;-2.01;63.07
20930;BME280;21895;47.072;15.132;2023-04-06T00:25:20;96973.00;;;-1.96;62.31
20930;BME280;21895;47.072;15.132;2023-04-06T00:27:47;96977.00;;;-2.08;62.92
20930;BME280;21895;47.072;15.132;2023-04-06T00:30:13;96975.00;;;-2.20;63.20
20930;BME280;21895;47.072;15.132;2023-04-06T00:32:40;96971.00;;;-2.47;63.47
20930;BME280;21895;47.072;15.132;2023-04-06T00:35:07;96972.00;;;-2.49;64.55
20930;BME280;21895;47.072;15.132;2023-04-06T00:37:33;96969.00;;;-2.48;64.11
20930;BME280;21895;47.072;15.132;2023-04-06T00:40:00;96967.00;;;-2.49;63.64
20930;BME280;21895;47.072;15.132;2023-04-06T00:42:27;96963.00;;;-2.41;63.63
20930;BME280;21895;47.072;15.132;2023-04-06T00:44:56;96969.00;;;-2.32;63.28
20930;BME280;21895;47.072;15.132;2023-04-06T00:47:24;96965.00;;;-2.41;63.87
20930;BME280;21895;47.072;15.132;2023-04-06T00:49:54;96963.00;;;-2.30;64.18
20930;BME280;21895;47.072;15.132;2023-04-06T00:52:21;96958.00;;;-2.21;63.65
20930;BME280;21895;47.072;15.132;2023-04-06T00:54:49;96964.00;;;-2.21;63.85
20930;BME280;21895;47.072;15.132;2023-04-06T00:57:16;96955.00;;;-2.26;63.98
20930;BME280;21895;47.072;15.132;2023-04-06T00:59:44;96953.00;;;-2.31;63.52
20930;BME280;21895;47.072;15.132;2023-04-06T01:02:10;96952.00;;;-2.36;62.99
20930;BME280;21895;47.072;15.132;2023-04-06T01:04:37;96962.00;;;-2.41;62.62
20930;BME280;21895;47.072;15.132;2023-04-06T01:07:03;96959.00;;;-2.58;63.22
20930;BME280;21895;47.072;15.132;2023-04-06T01:09:30;96954.00;;;-2.45;63.55
20930;BME280;21895;47.072;15.132;2023-04-06T01:11:58;96946.00;;;-2.55;63.70
20930;BME280;21895;47.072;15.132;2023-04-06T01:14:25;96955.00;;;-2.68;63.70
20930;BME280;21895;47.072;15.132;2023-04-06T01:16:52;96952.00;;;-2.91;63.35
20930;BME280;21895;47.072;15.132;2023-04-06T01:19:19;96943.00;;;-2.81;63.75
20930;BME280;21895;47.072;15.132;2023-04-06T01:21:47;96945.00;;;-2.86;64.07
20930;BME280;21895;47.072;15.132;2023-04-06T01:24:15;96944.00;;;-2.92;64.46
20930;BME280;21895;47.072;15.132;2023-04-06T01:26:43;96947.00;;;-2.88;64.32
20930;BME280;21895;47.072;15.132;2023-04-06T01:29:10;96948.00;;;-2.77;64.41
20930;BME280;21895;47.072;15.132;2023-04-06T01:31:37;96943.00;;;-2.81;64.28
20930;BME280;21895;47.072;15.132;2023-04-06T01:34:04;96943.00;;;-2.68;64.63
20930;BME280;21895;47.072;15.132;2023-04-06T01:36:30;96944.00;;;-2.49;64.22
20930;BME280;21895;47.072;15.132;2023-04-06T01:38:57;96947.00;;;-2.53;63.05
20930;BME280;21895;47.072;15.132;2023-04-06T01:41:23;96949.00;;;-2.70;62.41
20930;BME280;21895;47.072;15.132;2023-04-06T01:43:50;96934.00;;;-2.72;62.27
20930;BME280;21895;47.072;15.132;2023-04-06T01:46:20;96944.00;;;-2.80;63.28
20930;BME280;21895;47.072;15.132;2023-04-06T01:48:47;96940.00;;;-2.86;63.97
20930;BME280;21895;47.072;15.132;2023-04-06T01:51:14;96936.00;;;-2.93;64.33
20930;BME280;21895;47.072;15.132;2023-04-06T01:53:40;96927.00;;;-2.89;64.38
20930;BME280;21895;47.072;15.132;2023-04-06T01:56:07;96935.00;;;-2.98;64.28
20930;BME280;21895;47.072;15.132;2023-04-06T01:58:33;96939.00;;;-3.12;65.02
20930;BME280;21895;47.072;15.132;2023-04-06T02:01:00;96937.00;;;-2.97;65.62
20930;BME280;21895;47.072;15.132;2023-04-06T02:03:27;96934.00;;;-2.57;64.43
20930;BME280;21895;47.072;15.132;2023-04-06T02:05:53;96940.00;;;-2.61;63.77
20930;BME280;21895;47.072;15.132;2023-04-06T02:08:20;96934.00;;;-2.70;63.67
20930;BME280;21895;47.072;15.132;2023-04-06T02:10:47;96930.00;;;-2.71;63.60
20930;BME280;21895;47.072;15.132;2023-04-06T02:13:13;96935.00;;;-2.71;62.63
20930;BME280;21895;47.072;15.132;2023-04-06T02:15:40;96936.00;;;-3.01;63.23
20930;BME280;21895;47.072;15.132;2023-04-06T02:18:06;96932.00;;;-2.97;63.25
20930;BME280;21895;47.072;15.132;2023-04-06T02:20:33;96940.00;;;-3.11;63.42
20930;BME280;21895;47.072;15.132;2023-04-06T02:22:59;96935.00;;;-3.18;63.87
20930;BME280;21895;47.072;15.132;2023-04-06T02:25:26;96936.00;;;-3.27;64.17
20930;BME280;21895;47.072;15.132;2023-04-06T02:27:53;96935.00;;;-3.28;64.21
20930;BME280;21895;47.072;15.132;2023-04-06T02:30:19;96939.00;;;-3.23;64.83
20930;BME280;21895;47.072;15.132;2023-04-06T02:32:46;96938.00;;;-3.21;64.48
20930;BME280;21895;47.072;15.132;2023-04-06T02:35:12;96933.00;;;-3.14;64.02
20930;BME280;21895;47.072;15.132;2023-04-06T02:37:39;96939.00;;;-3.17;63.88
20930;BME280;21895;47.072;15.132;2023-04-06T02:40:06;96934.00;;;-3.14;63.30
20930;BME280;21895;47.072;15.132;2023-04-06T02:42:33;96935.00;;;-3.39;62.95
20930;BME280;21895;47.072;15.132;2023-04-06T02:45:01;96940.00;;;-3.52;63.39
20930;BME280;21895;47.072;15.132;2023-04-06T02:47:27;96941.00;;;-3.60;64.09
20930;BME280;21895;47.072;15.132;2023-04-06T02:49:54;96935.00;;;-3.37;64.56
20930;BME280;21895;47.072;15.132;2023-04-06T02:52:20;96938.00;;;-3.30;64.29
20930;BME280;21895;47.072;15.132;2023-04-06T02:54:47;96926.00;;;-3.40;63.50
20930;BME280;21895;47.072;15.132;2023-04-06T02:57:13;96924.00;;;-3.51;64.08
20930;BME280;21895;47.072;15.132;2023-04-06T02:59:40;96922.00;;;-3.34;64.64
20930;BME280;21895;47.072;15.132;2023-04-06T03:02:06;96926.00;;;-3.49;65.01
20930;BME280;21895;47.072;15.132;2023-04-06T03:04:33;96922.00;;;-3.33;64.59
20930;BME280;21895;47.072;15.132;2023-04-06T03:06:59;96925.00;;;-3.27;64.00
20930;BME280;21895;47.072;15.132;2023-04-06T03:09:27;96926.00;;;-3.25;63.22
20930;BME280;21895;47.072;15.132;2023-04-06T03:11:53;96918.00;;;-3.54;63.45
20930;BME280;21895;47.072;15.132;2023-04-06T03:14:21;96929.00;;;-3.64;64.20
20930;BME280;21895;47.072;15.132;2023-04-06T03:16:48;96924.00;;;-3.60;64.70
20930;BME280;21895;47.072;15.132;2023-04-06T03:19:15;96925.00;;;-3.45;64.32
20930;BME280;21895;47.072;15.132;2023-04-06T03:21:42;96921.00;;;-3.46;63.85
20930;BME280;21895;47.072;15.132;2023-04-06T03:24:08;96923.00;;;-3.61;63.74
20930;BME280;21895;47.072;15.132;2023-04-06T03:26:35;96921.00;;;-3.52;63.75
20930;BME280;21895;47.072;15.132;2023-04-06T03:29:03;96947.00;;;-3.52;64.49
20930;BME280;21895;47.072;15.132;2023-04-06T03:31:30;96933.00;;;-3.40;64.48
20930;BME280;21895;47.072;15.132;2023-04-06T03:33:56;96927.00;;;-3.39;64.32
20930;BME280;21895;47.072;15.132;2023-04-06T03:36:23;96929.00;;;-3.46;65.00
20930;BME280;21895;47.072;15.132;2023-04-06T03:38:49;96928.00;;;-3.32;65.03
20930;BME280;21895;47.072;15.132;2023-04-06T03:41:16;96933.00;;;-3.16;64.19
20930;BME280;21895;47.072;15.132;2023-04-06T03:43:42;96932.00;;;-3.29;63.90
20930;BME280;21895;47.072;15.132;2023-04-06T03:46:09;96926.00;;;-3.38;63.64
20930;BME280;21895;47.072;15.132;2023-04-06T03:48:36;96931.00;;;-3.46;64.05
20930;BME280;21895;47.072;15.132;2023-04-06T03:51:02;96935.00;;;-3.40;64.41
20930;BME280;21895;47.072;15.132;2023-04-06T03:53:29;96940.00;;;-3.40;63.54
20930;BME280;21895;47.072;15.132;2023-04-06T03:55:55;96941.00;;;-3.47;63.68
20930;BME280;21895;47.072;15.132;2023-04-06T03:58:22;96942.00;;;-3.65;64.23
20930;BME280;21895;47.072;15.132;2023-04-06T04:00:48;96948.00;;;-3.76;64.34
20930;BME280;21895;47.072;15.132;2023-04-06T04:03:15;96936.00;;;-3.82;64.38
20930;BME280;21895;47.072;15.132;2023-04-06T04:05:43;96939.00;;;-3.61;64.62
20930;BME280;21895;47.072;15.132;2023-04-06T04:08:09;96946.00;;;-3.69;64.62
20930;BME280;21895;47.072;15.132;2023-04-06T04:10:36;96940.00;;;-3.79;64.62
20930;BME280;21895;47.072;15.132;2023-04-06T04:13:05;96940.00;;;-3.73;64.90
20930;BME280;21895;47.072;15.132;2023-04-06T04:15:32;96940.00;;;-3.69;65.55
20930;BME280;21895;47.072;15.132;2023-04-06T04:17:58;96939.00;;;-3.64;64.98
20930;BME280;21895;47.072;15.132;2023-04-06T04:20:25;96935.00;;;-3.50;64.79
20930;BME280;21895;47.072;15.132;2023-04-06T04:22:51;96935.00;;;-3.20;64.51
20930;BME280;21895;47.072;15.132;2023-04-06T04:25:18;96942.00;;;-3.46;64.08
20930;BME280;21895;47.072;15.132;2023-04-06T04:27:44;96946.00;;;-3.58;63.54
20930;BME280;21895;47.072;15.132;2023-04-06T04:30:12;96941.00;;;-3.56;64.22
20930;BME280;21895;47.072;15.132;2023-04-06T04:32:38;96944.00;;;-3.75;64.26
20930;BME280;21895;47.072;15.132;2023-04-06T04:35:05;96942.00;;;-3.73;64.79
20930;BME280;21895;47.072;15.132;2023-04-06T04:37:32;96945.00;;;-3.65;64.97
20930;BME280;21895;47.072;15.132;2023-04-06T04:40:01;96942.00;;;-3.60;64.98
20930;BME280;21895;47.072;15.132;2023-04-06T04:42:28;96951.00;;;-3.53;64.68
20930;BME280;21895;47.072;15.132;2023-04-06T04:44:54;96947.00;;;-3.56;65.24
20930;BME280;21895;47.072;15.132;2023-04-06T04:47:21;96955.00;;;-3.51;65.05
20930;BME280;21895;47.072;15.132;2023-04-06T04:49:47;96944.00;;;-3.38;64.89
20930;BME280;21895;47.072;15.132;2023-04-06T04:52:14;96956.00;;;-3.43;64.04
20930;BME280;21895;47.072;15.132;2023-04-06T04:54:40;96951.00;;;-3.53;64.21
20930;BME280;21895;47.072;15.132;2023-04-06T04:57:07;96955.00;;;-3.43;65.03
20930;BME280;21895;47.072;15.132;2023-04-06T04:59:35;96960.00;;;-3.38;65.31
20930;BME280;21895;47.072;15.132;2023-04-06T05:02:01;96955.00;;;-3.13;64.74
20930;BME280;21895;47.072;15.132;2023-04-06T05:04:28;96951.00;;;-2.97;62.92
20930;BME280;21895;47.072;15.132;2023-04-06T05:07:08;96952.00;;;-3.32;62.73
20930;BME280;21895;47.072;15.132;2023-04-06T05:09:35;96959.00;;;-3.39;62.60
20930;BME280;21895;47.072;15.132;2023-04-06T05:12:02;96959.00;;;-3.47;63.05
20930;BME280;21895;47.072;15.132;2023-04-06T05:14:28;96954.00;;;-3.38;63.63
20930;BME280;21895;47.072;15.132;2023-04-06T05:16:55;96969.00;;;-3.37;64.22
20930;BME280;21895;47.072;15.132;2023-04-06T05:19:21;96965.00;;;-3.28;65.00
20930;BME280;21895;47.072;15.132;2023-04-06T05:21:48;96961.00;;;-3.24;64.03
20930;BME280;21895;47.072;15.132;2023-04-06T05:24:14;96962.00;;;-3.17;64.44
20930;BME280;21895;47.072;15.132;2023-04-06T05:26:41;96959.00;;;-3.03;64.97
20930;BME280;21895;47.072;15.132;2023-04-06T05:29:08;96955.00;;;-2.99;64.77
20930;BME280;21895;47.072;15.132;2023-04-06T05:31:34;96955.00;;;-2.80;64.65
20930;BME280;21895;47.072;15.132;2023-04-06T05:34:01;96950.00;;;-2.57;64.62
20930;BME280;21895;47.072;15.132;2023-04-06T05:36:28;96956.00;;;-2.43;64.72
20930;BME280;21895;47.072;15.132;2023-04-06T05:38:54;96952.00;;;-2.38;64.55
20930;BME280;21895;47.072;15.132;2023-04-06T05:41:22;96954.00;;;-2.12;64.71
20930;BME280;21895;47.072;15.132;2023-04-06T05:43:49;96946.00;;;-1.75;64.54
20930;BME280;21895;47.072;15.132;2023-04-06T05:46:15;96940.00;;;-1.63;64.13
20930;BME280;21895;47.072;15.132;2023-04-06T05:48:42;96952.00;;;-1.37;64.35
20930;BME280;21895;47.072;15.132;2023-04-06T05:51:08;96945.00;;;-1.06;63.39
20930;BME280;21895;47.072;15.132;2023-04-06T05:53:35;96943.00;;;-0.52;61.42
20930;BME280;21895;47.072;15.132;2023-04-06T05:56:03;96944.00;;;-0.16;59.95
20930;BME280;21895;47.072;15.132;2023-04-06T05:58:30;96946.00;;;0.10;59.78
20930;BME280;21895;47.072;15.132;2023-04-06T06:01:00;96947.00;;;0.40;58.84
20930;BME280;21895;47.072;15.132;2023-04-06T06:03:27;96939.00;;;0.79;57.88
20930;BME280;21895;47.072;15.132;2023-04-06T06:05:53;96927.00;;;1.21;55.17
20930;BME280;21895;47.072;15.132;2023-04-06T06:08:20;96932.00;;;1.65;56.63
20930;BME280;21895;47.072;15.132;2023-04-06T06:10:46;96924.00;;;1.99;57.40
20930;BME280;21895;47.072;15.132;2023-04-06T06:13:13;96921.00;;;2.14;56.55
20930;BME280;21895;47.072;15.132;2023-04-06T06:15:40;96922.00;;;2.13;56.82
20930;BME280;21895;47.072;15.132;2023-04-06T06:18:06;96923.00;;;2.34;55.55
20930;BME280;21895;47.072;15.132;2023-04-06T06:20:33;96917.00;;;2.31;54.64
20930;BME280;21895;47.072;15.132;2023-04-06T06:22:59;96920.00;;;2.59;54.43
20930;BME280;21895;47.072;15.132;2023-04-06T06:25:26;96926.00;;;2.88;53.23
20930;BME280;21895;47.072;15.132;2023-04-06T06:27:52;96907.00;;;3.24;52.24
20930;BME280;21895;47.072;15.132;2023-04-06T06:30:19;96912.00;;;3.36;52.11
20930;BME280;21895;47.072;15.132;2023-04-06T06:32:49;96915.00;;;3.47;51.47
20930;BME280;21895;47.072;15.132;2023-04-06T06:35:16;96912.00;;;3.65;51.78
20930;BME280;21895;47.072;15.132;2023-04-06T06:37:43;96907.00;;;3.99;51.52
20930;BME280;21895;47.072;15.132;2023-04-06T06:40:11;96908.00;;;4.19;49.81
20930;BME280;21895;47.072;15.132;2023-04-06T06:42:39;96908.00;;;4.40;49.79
20930;BME280;21895;47.072;15.132;2023-04-06T06:45:08;96909.00;;;4.66;48.93
20930;BME280;21895;47.072;15.132;2023-04-06T06:47:34;96910.00;;;4.76;47.42
20930;BME280;21895;47.072;15.132;2023-04-06T06:50:01;96899.00;;;4.82;46.69
20930;BME280;21895;47.072;15.132;2023-04-06T06:52:29;96896.00;;;5.03;44.51
20930;BME280;21895;47.072;15.132;2023-04-06T06:54:55;96898.00;;;5.26;46.10
20930;BME280;21895;47.072;15.132;2023-04-06T06:57:24;96902.00;;;5.40;44.81
20930;BME280;21895;47.072;15.132;2023-04-06T06:59:51;96890.00;;;5.52;45.53
20930;BME280;21895;47.072;15.132;2023-04-06T07:02:17;96898.00;;;5.99;44.42
20930;BME280;21895;47.072;15.132;2023-04-06T07:04:48;96892.00;;;6.16;44.07
20930;BME280;21895;47.072;15.132;2023-04-06T07:07:16;96892.00;;;6.27;44.22
20930;BME280;21895;47.072;15.132;2023-04-06T07:09:42;96898.00;;;6.38;42.96
20930;BME280;21895;47.072;15.132;2023-04-06T07:12:09;96891.00;;;6.47;42.97
20930;BME280;21895;47.072;15.132;2023-04-06T07:14:35;96888.00;;;6.67;42.14
20930;BME280;21895;47.072;15.132;2023-04-06T07:17:02;96882.00;;;6.85;42.27
20930;BME280;21895;47.072;15.132;2023-04-06T07:19:29;96886.00;;;7.06;40.57
20930;BME280;21895;47.072;15.132;2023-04-06T07:21:56;96880.00;;;7.20;40.96
20930;BME280;21895;47.072;15.132;2023-04-06T07:24:22;96890.00;;;7.36;41.09
20930;BME280;21895;47.072;15.132;2023-04-06T07:26:49;96891.00;;;7.45;40.69
20930;BME280;21895;47.072;15.132;2023-04-06T07:29:15;96888.00;;;7.23;41.45
20930;BME280;21895;47.072;15.132;2023-04-06T07:31:42;96891.00;;;7.55;42.33
20930;BME280;21895;47.072;15.132;2023-04-06T07:34:08;96888.00;;;7.90;40.08
20930;BME280;21895;47.072;15.132;2023-04-06T07:36:35;96880.00;;;7.98;41.00
20930;BME280;21895;47.072;15.132;2023-04-06T07:39:02;96875.00;;;7.98;40.84
20930;BME280;21895;47.072;15.132;2023-04-06T07:41:28;96876.00;;;8.27;40.81
20930;BME280;21895;47.072;15.132;2023-04-06T07:43:55;96876.00;;;8.47;40.86
20930;BME280;21895;47.072;15.132;2023-04-06T07:46:22;96886.00;;;8.66;38.57
20930;BME280;21895;47.072;15.132;2023-04-06T07:48:49;96880.00;;;8.76;39.25
20930;BME280;21895;47.072;15.132;2023-04-06T07:51:17;96873.00;;;8.93;39.79
20930;BME280;21895;47.072;15.132;2023-04-06T07:53:46;96872.00;;;8.94;38.85
20930;BME280;21895;47.072;15.132;2023-04-06T07:56:13;96865.00;;;9.28;37.38
20930;BME280;21895;47.072;15.132;2023-04-06T07:58:41;96860.00;;;9.29;36.45
20930;BME280;21895;47.072;15.132;2023-04-06T08:01:08;96858.00;;;9.49;35.48
20930;BME280;21895;47.072;15.132;2023-04-06T08:03:35;96855.00;;;9.55;35.37
20930;BME280;21895;47.072;15.132;2023-04-06T08:06:03;96856.00;;;9.63;34.81
20930;BME280;21895;47.072;15.132;2023-04-06T08:08:30;96856.00;;;9.81;33.31
20930;BME280;21895;47.072;15.132;2023-04-06T08:10:56;96848.00;;;9.73;34.44
20930;BME280;21895;47.072;15.132;2023-04-06T08:13:25;96859.00;;;9.79;33.82
20930;BME280;21895;47.072;15.132;2023-04-06T08:15:52;96841.00;;;10.02;34.93
20930;BME280;21895;47.072;15.132;2023-04-06T08:18:19;96845.00;;;10.36;33.81
20930;BME280;21895;47.072;15.132;2023-04-06T08:20:46;96842.00;;;10.29;34.06
20930;BME280;21895;47.072;15.132;2023-04-06T08:23:13;96836.00;;;10.43;34.33
20930;BME280;21895;47.072;15.132;2023-04-06T08:25:40;96842.00;;;10.59;32.97
20930;BME280;21895;47.072;15.132;2023-04-06T08:28:10;96830.00;;;10.73;32.84
20930;BME280;21895;47.072;15.132;2023-04-06T08:30:42;96829.00;;;10.83;32.12
20930;BME280;21895;47.072;15.132;2023-04-06T08:33:09;96825.00;;;11.02;33.67
20930;BME280;21895;47.072;15.132;2023-04-06T08:35:36;96819.00;;;10.92;31.81
20930;BME280;21895;47.072;15.132;2023-04-06T08:38:03;96804.00;;;10.76;30.99
20930;BME280;21895;47.072;15.132;2023-04-06T08:40:29;96811.00;;;10.92;32.88
20930;BME280;21895;47.072;15.132;2023-04-06T08:42:59;96810.00;;;11.01;30.87
20930;BME280;21895;47.072;15.132;2023-04-06T08:45:28;96799.00;;;10.96;32.42
20930;BME280;21895;47.072;15.132;2023-04-06T08:47:57;96801.00;;;11.23;32.67
20930;BME280;21895;47.072;15.132;2023-04-06T08:50:25;96805.00;;;11.35;32.44
20930;BME280;21895;47.072;15.132;2023-04-06T08:52:52;96799.00;;;11.71;30.59
20930;BME280;21895;47.072;15.132;2023-04-06T08:55:19;96803.00;;;11.73;30.23
20930;BME280;21895;47.072;15.132;2023-04-06T08:57:46;96790.00;;;11.85;30.08
20930;BME280;21895;47.072;15.132;2023-04-06T09:00:14;96794.00;;;11.91;28.61
20930;BME280;21895;47.072;15.132;2023-04-06T09:02:45;96786.00;;;11.58;27.55
20930;BME280;21895;47.072;15.132;2023-04-06T09:05:12;96784.00;;;11.51;28.17
20930;BME280;21895;47.072;15.132;2023-04-06T09:07:40;96771.00;;;11.62;28.44
20930;BME280;21895;47.072;15.132;2023-04-06T09:10:08;96775.00;;;11.95;27.96
20930;BME280;21895;47.072;15.132;2023-04-06T09:12:34;96775.00;;;11.98;28.34
20930;BME280;21895;47.072;15.132;2023-04-06T09:15:02;96776.00;;;12.12;28.24
20930;BME280;21895;47.072;15.132;2023-04-06T09:17:31;96765.00;;;12.10;26.62
20930;BME280;21895;47.072;15.132;2023-04-06T09:20:03;96781.00;;;11.38;27.19
20930;BME280;21895;47.072;15.132;2023-04-06T09:22:38;96761.00;;;11.32;27.19
20930;BME280;21895;47.072;15.132;2023-04-06T09:25:07;96768.00;;;11.75;26.85
20930;BME280;21895;47.072;15.132;2023-04-06T09:27:37;96759.00;;;11.71;27.75
20930;BME280;21895;47.072;15.132;2023-04-06T09:30:10;96760.00;;;12.06;28.18
20930;BME280;21895;47.072;15.132;2023-04-06T09:33:23;96755.00;;;11.87;27.71
20930;BME280;21895;47.072;15.132;2023-04-06T09:35:50;96751.00;;;11.89;27.37
20930;BME280;21895;47.072;15.132;2023-04-06T09:38:17;96752.00;;;12.03;27.64
20930;BME280;21895;47.072;15.132;2023-04-06T09:40:51;96741.00;;;11.72;27.69
20930;BME280;21895;47.072;15.132;2023-04-06T09:43:27;96757.00;;;11.97;28.31
20930;BME280;21895;47.072;15.132;2023-04-06T09:45:56;96741.00;;;12.30;28.67
20930;BME280;21895;47.072;15.132;2023-04-06T09:48:24;96747.00;;;12.66;27.74
20930;BME280;21895;47.072;15.132;2023-04-06T09:51:00;96743.00;;;12.47;26.30
20930;BME280;21895;47.072;15.132;2023-04-06T09:53:31;96735.00;;;12.45;26.64
20930;BME280;21895;47.072;15.132;2023-04-06T09:56:03;96740.00;;;12.18;26.73
20930;BME280;21895;47.072;15.132;2023-04-06T09:58:39;96725.00;;;12.20;27.25
20930;BME280;21895;47.072;15.132;2023-04-06T10:01:15;96718.00;;;12.51;27.79
20930;BME280;21895;47.072;15.132;2023-04-06T10:04:12;96716.00;;;12.60;28.04
20930;BME280;21895;47.072;15.132;2023-04-06T10:06:42;96714.00;;;12.52;28.37
20930;BME280;21895;47.072;15.132;2023-04-06T10:09:09;96713.00;;;12.95;27.85
20930;BME280;21895;47.072;15.132;2023-04-06T10:11:35;96715.00;;;12.16;26.34
20930;BME280;21895;47.072;15.132;2023-04-06T10:14:02;96716.00;;;12.38;27.13
20930;BME280;21895;47.072;15.132;2023-04-06T10:16:29;96720.00;;;12.17;27.32
20930;BME280;21895;47.072;15.132;2023-04-06T10:19:13;96716.00;;;12.25;26.44
20930;BME280;21895;47.072;15.132;2023-04-06T10:21:47;96712.00;;;12.52;26.63
20930;BME280;21895;47.072;15.132;2023-04-06T10:24:16;96707.00;;;12.34;25.46
20930;BME280;21895;47.072;15.132;2023-04-06T10:26:43;96700.00;;;12.43;25.68
20930;BME280;21895;47.072;15.132;2023-04-06T10:29:09;96689.00;;;12.38;25.33
20930;BME280;21895;47.072;15.132;2023-04-06T10:31:42;96686.00;;;12.51;25.16
20930;BME280;21895;47.072;15.132;2023-04-06T10:34:10;96687.00;;;12.87;26.96
20930;BME280;21895;47.072;15.132;2023-04-06T10:36:37;96667.00;;;13.30;26.17
20930;BME280;21895;47.072;15.132;2023-04-06T10:39:05;96681.00;;;13.43;27.18
20930;BME280;21895;47.072;15.132;2023-04-06T10:41:46;96678.00;;;13.32;24.83
20930;BME280;21895;47.072;15.132;2023-04-06T10:44:22;96681.00;;;13.20;26.28
20930;BME280;21895;47.072;15.132;2023-04-06T10:46:59;96672.00;;;13.43;26.64
20930;BME280;21895;47.072;15.132;2023-04-06T10:49:27;96669.00;;;13.62;25.57
20930;BME280;21895;47.072;15.132;2023-04-06T10:51:55;96665.00;;;13.41;24.37
20930;BME280;21895;47.072;15.132;2023-04-06T10:54:24;96668.00;;;13.24;24.38
20930;BME280;21895;47.072;15.132;2023-04-06T10:56:52;96678.00;;;12.73;24.80
20930;BME280;21895;47.072;15.132;2023-04-06T10:59:22;96668.00;;;12.89;26.31
20930;BME280;21895;47.072;15.132;2023-04-06T11:01:51;96668.00;;;13.17;25.97
20930;BME280;21895;47.072;15.132;2023-04-06T11:04:19;96661.00;;;13.01;25.61
20930;BME280;21895;47.072;15.132;2023-04-06T11:06:50;96668.00;;;13.12;24.27
20930;BME280;21895;47.072;15.132;2023-04-06T11:09:28;96660.00;;;12.94;24.53
20930;BME280;21895;47.072;15.132;2023-04-06T11:11:55;96652.00;;;12.98;26.45
20930;BME280;21895;47.072;15.132;2023-04-06T11:14:23;96650.00;;;12.86;26.91
20930;BME280;21895;47.072;15.132;2023-04-06T11:16:50;96648.00;;;13.08;25.89
20930;BME280;21895;47.072;15.132;2023-04-06T11:19:17;96651.00;;;12.96;24.48
20930;BME280;21895;47.072;15.132;2023-04-06T11:21:49;96648.00;;;12.79;24.49
20930;BME280;21895;47.072;15.132;2023-04-06T11:24:23;96634.00;;;12.88;25.28
20930;BME280;21895;47.072;15.132;2023-04-06T11:26:59;96643.00;;;12.61;24.52
20930;BME280;21895;47.072;15.132;2023-04-06T11:29:29;96629.00;;;12.68;24.88
20930;BME280;21895;47.072;15.132;2023-04-06T11:32:04;96626.00;;;12.64;25.63
20930;BME280;21895;47.072;15.132;2023-04-06T11:34:36;96615.00;;;12.96;24.99
20930;BME280;21895;47.072;15.132;2023-04-06T11:37:10;96631.00;;;12.10;23.89
20930;BME280;21895;47.072;15.132;2023-04-06T11:40:01;96626.00;;;12.52;25.58
20930;BME280;21895;47.072;15.132;2023-04-06T11:42:29;96616.00;;;13.00;24.62
20930;BME280;21895;47.072;15.132;2023-04-06T11:44:57;96619.00;;;12.73;23.61
20930;BME280;21895;47.072;15.132;2023-04-06T11:47:35;96615.00;;;12.08;24.12
20930;BME280;21895;47.072;15.132;2023-04-06T11:50:14;96618.00;;;11.91;24.45
20930;BME280;21895;47.072;15.132;2023-04-06T11:52:42;96603.00;;;12.19;25.22
20930;BME280;21895;47.072;15.132;2023-04-06T11:55:18;96601.00;;;12.52;24.65
20930;BME280;21895;47.072;15.132;2023-04-06T11:57:45;96614.00;;;12.60;24.87
20930;BME280;21895;47.072;15.132;2023-04-06T12:00:12;96608.00;;;12.64;25.02
20930;BME280;21895;47.072;15.132;2023-04-06T12:02:40;96593.00;;;12.57;24.44
20930;BME280;21895;47.072;15.132;2023-04-06T12:05:11;96600.00;;;12.22;24.37
20930;BME280;21895;47.072;15.132;2023-04-06T12:07:38;96594.00;;;12.34;24.29
20930;BME280;21895;47.072;15.132;2023-04-06T12:10:06;96605.00;;;12.51;24.30
20930;BME280;21895;47.072;15.132;2023-04-06T12:12:35;96595.00;;;12.38;23.73
20930;BME280;21895;47.072;15.132;2023-04-06T12:15:02;96604.00;;;12.40;24.34
20930;BME280;21895;47.072;15.132;2023-04-06T12:17:29;96594.00;;;12.62;23.32
20930;BME280;21895;47.072;15.132;2023-04-06T12:19:56;96594.00;;;12.17;23.40
20930;BME280;21895;47.072;15.132;2023-04-06T12:22:31;96582.00;;;12.74;24.02
20930;BME280;21895;47.072;15.132;2023-04-06T12:24:57;96588.00;;;12.92;23.36
20930;BME280;21895;47.072;15.132;2023-04-06T12:27:24;96580.00;;;12.94;22.79
20930;BME280;21895;47.072;15.132;2023-04-06T12:29:51;96584.00;;;12.85;23.69
20930;BME280;21895;47.072;15.132;2023-04-06T12:32:17;96585.00;;;12.77;22.82
20930;BME280;21895;47.072;15.132;2023-04-06T12:34:45;96588.00;;;12.67;22.45
20930;BME280;21895;47.072;15.132;2023-04-06T12:37:11;96588.00;;;12.55;23.81
20930;BME280;21895;47.072;15.132;2023-04-06T12:39:38;96576.00;;;12.76;24.72
20930;BME280;21895;47.072;15.132;2023-04-06T12:42:04;96591.00;;;12.91;23.25
20930;BME280;21895;47.072;15.132;2023-04-06T12:44:31;96586.00;;;12.74;22.92
20930;BME280;21895;47.072;15.132;2023-04-06T12:46:57;96579.00;;;12.87;22.18
20930;BME280;21895;47.072;15.132;2023-04-06T12:49:24;96573.00;;;12.78;22.40
20930;BME280;21895;47.072;15.132;2023-04-06T12:51:51;96568.00;;;13.12;22.35
20930;BME280;21895;47.072;15.132;2023-04-06T12:54:18;96563.00;;;13.05;23.17
20930;BME280;21895;47.072;15.132;2023-04-06T12:56:46;96574.00;;;13.05;22.81